Terminal Aerodrome Forecast
Issued by NWS

Home | Current Version | Previous Version | Text Only | Print | Product List | Glossary On
Versions: 1 2 3 4 5 6 7 8 9 10 11 12 13 14 15 16 17 18 19 20 21 22 23 24 25 26 27 28 29 30 31
000
FTUS43 KGRB 231138
TAFATW
TAF
KATW 231138Z 2312/2412 36009G16KT P6SM SCT012 BKN025
      TEMPO 2312/2316 SCT007 BKN012
     FM231800 01009G15KT P6SM SCT015 BKN040
     FM240600 04012G21KT 6SM -SN OVC015
     FM240900 05014G24KT 2SM -SNPL OVC010
     FM241000 05015G25KT 2SM -FZRASN OVC008=

USA.gov is the U.S. government's official web portal to all federal, state and local government web resources and services.